sensor_id;sensor_type;location;lat;lon;timestamp;P1;durP1;ratioP1;P2;durP2;ratioP2
23888;SDS011;12125;40.102;18.326;2022-12-07T00:01:58;18.92;;;16.75;;
23888;SDS011;12125;40.102;18.326;2022-12-07T00:04:25;21.65;;;15.93;;
23888;SDS011;12125;40.102;18.326;2022-12-07T00:06:52;20.73;;;15.02;;
23888;SDS011;12125;40.102;18.326;2022-12-07T00:09:19;19.00;;;15.15;;
23888;SDS011;12125;40.102;18.326;2022-12-07T00:11:48;15.30;;;13.55;;
23888;SDS011;12125;40.102;18.326;2022-12-07T00:14:16;15.25;;;13.57;;
23888;SDS011;12125;40.102;18.326;2022-12-07T00:16:43;16.90;;;14.07;;
23888;SDS011;12125;40.102;18.326;2022-12-07T00:19:10;19.40;;;14.50;;
23888;SDS011;12125;40.102;18.326;2022-12-07T00:21:38;17.67;;;13.77;;
23888;SDS011;12125;40.102;18.326;2022-12-07T00:24:06;15.60;;;13.57;;
23888;SDS011;12125;40.102;18.326;2022-12-07T00:26:38;18.95;;;15.90;;
23888;SDS011;12125;40.102;18.326;2022-12-07T00:29:11;17.33;;;14.80;;
23888;SDS011;12125;40.102;18.326;2022-12-07T00:31:41;14.98;;;13.38;;
23888;SDS011;12125;40.102;18.326;2022-12-07T00:34:12;15.80;;;14.20;;
23888;SDS011;12125;40.102;18.326;2022-12-07T00:36:41;15.77;;;13.23;;
23888;SDS011;12125;40.102;18.326;2022-12-07T00:39:08;16.25;;;14.57;;
23888;SDS011;12125;40.102;18.326;2022-12-07T00:41:34;22.00;;;17.35;;
23888;SDS011;12125;40.102;18.326;2022-12-07T00:44:02;18.17;;;14.93;;
23888;SDS011;12125;40.102;18.326;2022-12-07T00:46:30;21.25;;;14.77;;
23888;SDS011;12125;40.102;18.326;2022-12-07T00:48:58;17.35;;;15.15;;
23888;SDS011;12125;40.102;18.326;2022-12-07T00:51:26;15.27;;;13.73;;
23888;SDS011;12125;40.102;18.326;2022-12-07T00:53:56;22.05;;;15.32;;
23888;SDS011;12125;40.102;18.326;2022-12-07T00:56:24;16.58;;;14.30;;
23888;SDS011;12125;40.102;18.326;2022-12-07T00:58:59;23.63;;;16.80;;
23888;SDS011;12125;40.102;18.326;2022-12-07T01:01:28;15.73;;;14.13;;
23888;SDS011;12125;40.102;18.326;2022-12-07T01:03:56;18.98;;;14.88;;
23888;SDS011;12125;40.102;18.326;2022-12-07T01:06:23;17.35;;;15.25;;
23888;SDS011;12125;40.102;18.326;2022-12-07T01:08:52;19.90;;;16.20;;
23888;SDS011;12125;40.102;18.326;2022-12-07T01:11:23;22.98;;;15.68;;
23888;SDS011;12125;40.102;18.326;2022-12-07T01:13:51;18.00;;;16.00;;
23888;SDS011;12125;40.102;18.326;2022-12-07T01:16:18;20.60;;;16.25;;
23888;SDS011;12125;40.102;18.326;2022-12-07T01:18:46;24.20;;;15.80;;
23888;SDS011;12125;40.102;18.326;2022-12-07T01:21:15;16.92;;;15.30;;
23888;SDS011;12125;40.102;18.326;2022-12-07T01:23:42;19.60;;;14.70;;
23888;SDS011;12125;40.102;18.326;2022-12-07T01:26:11;16.92;;;14.95;;
23888;SDS011;12125;40.102;18.326;2022-12-07T01:28:39;17.95;;;14.38;;
23888;SDS011;12125;40.102;18.326;2022-12-07T01:31:08;15.75;;;14.20;;
23888;SDS011;12125;40.102;18.326;2022-12-07T01:33:38;16.17;;;14.38;;
23888;SDS011;12125;40.102;18.326;2022-12-07T01:38:36;15.02;;;13.55;;
23888;SDS011;12125;40.102;18.326;2022-12-07T01:41:03;15.27;;;13.25;;
23888;SDS011;12125;40.102;18.326;2022-12-07T01:43:31;15.13;;;13.52;;
23888;SDS011;12125;40.102;18.326;2022-12-07T01:45:59;16.60;;;14.85;;
23888;SDS011;12125;40.102;18.326;2022-12-07T01:48:37;15.35;;;13.95;;
23888;SDS011;12125;40.102;18.326;2022-12-07T01:51:08;21.55;;;13.23;;
23888;SDS011;12125;40.102;18.326;2022-12-07T01:53:38;14.65;;;12.55;;
23888;SDS011;12125;40.102;18.326;2022-12-07T01:56:06;16.02;;;14.52;;
23888;SDS011;12125;40.102;18.326;2022-12-07T01:58:34;14.63;;;13.13;;
23888;SDS011;12125;40.102;18.326;2022-12-07T02:01:01;17.48;;;14.75;;
23888;SDS011;12125;40.102;18.326;2022-12-07T02:03:36;23.67;;;14.20;;
23888;SDS011;12125;40.102;18.326;2022-12-07T02:06:04;15.15;;;12.80;;
23888;SDS011;12125;40.102;18.326;2022-12-07T02:08:34;19.85;;;14.13;;
23888;SDS011;12125;40.102;18.326;2022-12-07T02:11:02;17.83;;;13.35;;
23888;SDS011;12125;40.102;18.326;2022-12-07T02:13:31;15.35;;;12.05;;
23888;SDS011;12125;40.102;18.326;2022-12-07T02:24:14;23.70;;;13.52;;
23888;SDS011;12125;40.102;18.326;2022-12-07T02:26:51;19.77;;;12.88;;
23888;SDS011;12125;40.102;18.326;2022-12-07T02:29:25;22.65;;;14.77;;
23888;SDS011;12125;40.102;18.326;2022-12-07T02:32:03;19.30;;;13.63;;
23888;SDS011;12125;40.102;18.326;2022-12-07T02:35:15;17.35;;;13.18;;
23888;SDS011;12125;40.102;18.326;2022-12-07T02:42:36;13.68;;;11.90;;
23888;SDS011;12125;40.102;18.326;2022-12-07T02:45:04;17.63;;;14.63;;
23888;SDS011;12125;40.102;18.326;2022-12-07T02:47:31;19.98;;;13.88;;
23888;SDS011;12125;40.102;18.326;2022-12-07T02:49:59;16.98;;;13.13;;
23888;SDS011;12125;40.102;18.326;2022-12-07T02:52:26;14.88;;;13.02;;
23888;SDS011;12125;40.102;18.326;2022-12-07T02:54:53;17.70;;;14.05;;
23888;SDS011;12125;40.102;18.326;2022-12-07T02:59:50;19.20;;;13.65;;
23888;SDS011;12125;40.102;18.326;2022-12-07T03:12:44;17.73;;;14.55;;
23888;SDS011;12125;40.102;18.326;2022-12-07T03:15:18;20.88;;;14.80;;
23888;SDS011;12125;40.102;18.326;2022-12-07T03:17:46;14.93;;;12.35;;
23888;SDS011;12125;40.102;18.326;2022-12-07T03:20:15;16.98;;;13.38;;
23888;SDS011;12125;40.102;18.326;2022-12-07T03:22:44;16.00;;;13.38;;
23888;SDS011;12125;40.102;18.326;2022-12-07T03:25:11;15.43;;;12.77;;
23888;SDS011;12125;40.102;18.326;2022-12-07T03:30:19;15.07;;;11.82;;
23888;SDS011;12125;40.102;18.326;2022-12-07T03:33:01;20.35;;;13.68;;
23888;SDS011;12125;40.102;18.326;2022-12-07T03:35:47;18.42;;;13.18;;
23888;SDS011;12125;40.102;18.326;2022-12-07T03:38:30;15.57;;;10.85;;
23888;SDS011;12125;40.102;18.326;2022-12-07T03:40:59;14.60;;;11.65;;
23888;SDS011;12125;40.102;18.326;2022-12-07T03:43:29;18.55;;;12.82;;
23888;SDS011;12125;40.102;18.326;2022-12-07T03:46:16;10.98;;;9.80;;
23888;SDS011;12125;40.102;18.326;2022-12-07T03:54:11;18.05;;;10.48;;
23888;SDS011;12125;40.102;18.326;2022-12-07T03:56:40;11.48;;;10.20;;
23888;SDS011;12125;40.102;18.326;2022-12-07T03:59:07;15.57;;;10.90;;
23888;SDS011;12125;40.102;18.326;2022-12-07T04:01:35;15.57;;;10.43;;
23888;SDS011;12125;40.102;18.326;2022-12-07T04:04:01;13.95;;;10.68;;
23888;SDS011;12125;40.102;18.326;2022-12-07T04:06:28;12.90;;;10.00;;
23888;SDS011;12125;40.102;18.326;2022-12-07T04:08:55;23.90;;;13.27;;
23888;SDS011;12125;40.102;18.326;2022-12-07T04:11:21;17.98;;;12.43;;
23888;SDS011;12125;40.102;18.326;2022-12-07T04:13:48;12.25;;;10.35;;
23888;SDS011;12125;40.102;18.326;2022-12-07T04:16:33;19.25;;;12.10;;
23888;SDS011;12125;40.102;18.326;2022-12-07T04:19:00;17.02;;;11.65;;
23888;SDS011;12125;40.102;18.326;2022-12-07T04:21:26;16.38;;;10.43;;
23888;SDS011;12125;40.102;18.326;2022-12-07T04:23:53;11.98;;;10.02;;
23888;SDS011;12125;40.102;18.326;2022-12-07T04:26:19;12.10;;;9.98;;
23888;SDS011;12125;40.102;18.326;2022-12-07T04:28:46;14.52;;;10.25;;
23888;SDS011;12125;40.102;18.326;2022-12-07T04:31:12;16.70;;;10.73;;
23888;SDS011;12125;40.102;18.326;2022-12-07T04:33:39;12.82;;;9.93;;
23888;SDS011;12125;40.102;18.326;2022-12-07T04:36:07;23.60;;;12.48;;
23888;SDS011;12125;40.102;18.326;2022-12-07T04:38:34;21.15;;;13.82;;
23888;SDS011;12125;40.102;18.326;2022-12-07T04:41:05;24.83;;;15.52;;
23888;SDS011;12125;40.102;18.326;2022-12-07T04:43:33;44.35;;;18.58;;
23888;SDS011;12125;40.102;18.326;2022-12-07T04:46:01;26.25;;;17.83;;
23888;SDS011;12125;40.102;18.326;2022-12-07T04:48:28;27.55;;;17.13;;
23888;SDS011;12125;40.102;18.326;2022-12-07T04:50:55;19.50;;;15.45;;
23888;SDS011;12125;40.102;18.326;2022-12-07T04:53:22;21.30;;;14.65;;
23888;SDS011;12125;40.102;18.326;2022-12-07T04:55:49;19.05;;;13.30;;
23888;SDS011;12125;40.102;18.326;2022-12-07T04:58:16;14.45;;;11.20;;
23888;SDS011;12125;40.102;18.326;2022-12-07T05:00:43;15.80;;;11.07;;
23888;SDS011;12125;40.102;18.326;2022-12-07T05:03:09;19.33;;;12.50;;
23888;SDS011;12125;40.102;18.326;2022-12-07T05:05:39;17.63;;;12.52;;
23888;SDS011;12125;40.102;18.326;2022-12-07T05:08:06;25.08;;;14.82;;
23888;SDS011;12125;40.102;18.326;2022-12-07T05:10:33;22.13;;;13.98;;
23888;SDS011;12125;40.102;18.326;2022-12-07T05:13:00;27.15;;;14.50;;
23888;SDS011;12125;40.102;18.326;2022-12-07T05:15:27;16.30;;;12.32;;
23888;SDS011;12125;40.102;18.326;2022-12-07T05:17:53;20.05;;;13.65;;
23888;SDS011;12125;40.102;18.326;2022-12-07T05:20:20;17.60;;;12.13;;
23888;SDS011;12125;40.102;18.326;2022-12-07T05:22:47;16.92;;;11.85;;
23888;SDS011;12125;40.102;18.326;2022-12-07T05:25:14;17.13;;;11.52;;
23888;SDS011;12125;40.102;18.326;2022-12-07T05:27:40;19.08;;;11.80;;
23888;SDS011;12125;40.102;18.326;2022-12-07T05:30:07;17.33;;;13.90;;
23888;SDS011;12125;40.102;18.326;2022-12-07T05:32:34;19.02;;;13.00;;
23888;SDS011;12125;40.102;18.326;2022-12-07T05:35:01;18.65;;;13.10;;
23888;SDS011;12125;40.102;18.326;2022-12-07T05:37:28;17.95;;;12.68;;
23888;SDS011;12125;40.102;18.326;2022-12-07T05:39:54;19.40;;;12.38;;
23888;SDS011;12125;40.102;18.326;2022-12-07T05:42:21;29.45;;;13.13;;
23888;SDS011;12125;40.102;18.326;2022-12-07T05:44:48;16.67;;;11.57;;
23888;SDS011;12125;40.102;18.326;2022-12-07T05:47:15;18.27;;;11.63;;
23888;SDS011;12125;40.102;18.326;2022-12-07T05:49:42;18.63;;;12.90;;
23888;SDS011;12125;40.102;18.326;2022-12-07T05:52:09;28.85;;;13.85;;
23888;SDS011;12125;40.102;18.326;2022-12-07T05:54:36;18.92;;;13.15;;
23888;SDS011;12125;40.102;18.326;2022-12-07T05:57:02;22.23;;;13.52;;
23888;SDS011;12125;40.102;18.326;2022-12-07T05:59:29;23.35;;;15.60;;
23888;SDS011;12125;40.102;18.326;2022-12-07T06:02:04;48.30;;;17.75;;
23888;SDS011;12125;40.102;18.326;2022-12-07T06:04:32;83.70;;;23.92;;
23888;SDS011;12125;40.102;18.326;2022-12-07T06:06:59;29.75;;;18.85;;
23888;SDS011;12125;40.102;18.326;2022-12-07T06:09:27;62.92;;;15.77;;
23888;SDS011;12125;40.102;18.326;2022-12-07T06:11:54;18.02;;;12.20;;
23888;SDS011;12125;40.102;18.326;2022-12-07T06:14:40;31.67;;;14.55;;
23888;SDS011;12125;40.102;18.326;2022-12-07T06:17:07;27.15;;;11.30;;
23888;SDS011;12125;40.102;18.326;2022-12-07T06:19:34;13.98;;;10.15;;
23888;SDS011;12125;40.102;18.326;2022-12-07T06:22:01;17.88;;;10.25;;
23888;SDS011;12125;40.102;18.326;2022-12-07T06:24:28;19.23;;;11.10;;
23888;SDS011;12125;40.102;18.326;2022-12-07T06:26:55;25.42;;;13.10;;
23888;SDS011;12125;40.102;18.326;2022-12-07T06:29:21;18.45;;;11.98;;
23888;SDS011;12125;40.102;18.326;2022-12-07T06:31:48;19.95;;;12.30;;
23888;SDS011;12125;40.102;18.326;2022-12-07T06:34:20;19.30;;;11.43;;
23888;SDS011;12125;40.102;18.326;2022-12-07T06:37:04;20.30;;;12.00;;
23888;SDS011;12125;40.102;18.326;2022-12-07T06:39:39;23.75;;;11.48;;
23888;SDS011;12125;40.102;18.326;2022-12-07T06:42:11;15.82;;;9.93;;
23888;SDS011;12125;40.102;18.326;2022-12-07T06:44:40;16.23;;;9.23;;
23888;SDS011;12125;40.102;18.326;2022-12-07T06:47:07;25.83;;;10.93;;
23888;SDS011;12125;40.102;18.326;2022-12-07T06:49:35;16.70;;;10.13;;
23888;SDS011;12125;40.102;18.326;2022-12-07T06:52:03;11.07;;;8.73;;
23888;SDS011;12125;40.102;18.326;2022-12-07T06:54:31;14.98;;;7.43;;
23888;SDS011;12125;40.102;18.326;2022-12-07T06:56:59;14.88;;;8.32;;
23888;SDS011;12125;40.102;18.326;2022-12-07T06:59:27;12.57;;;8.45;;
23888;SDS011;12125;40.102;18.326;2022-12-07T07:01:53;12.88;;;8.75;;
23888;SDS011;12125;40.102;18.326;2022-12-07T07:04:20;17.65;;;8.68;;
23888;SDS011;12125;40.102;18.326;2022-12-07T07:06:50;13.32;;;8.02;;
23888;SDS011;12125;40.102;18.326;2022-12-07T07:09:19;18.15;;;8.38;;
23888;SDS011;12125;40.102;18.326;2022-12-07T07:11:46;17.75;;;8.57;;
23888;SDS011;12125;40.102;18.326;2022-12-07T07:14:12;13.60;;;6.72;;
23888;SDS011;12125;40.102;18.326;2022-12-07T07:16:45;19.92;;;7.28;;
23888;SDS011;12125;40.102;18.326;2022-12-07T07:19:14;23.92;;;7.10;;
23888;SDS011;12125;40.102;18.326;2022-12-07T07:24:18;7.38;;;5.22;;
23888;SDS011;12125;40.102;18.326;2022-12-07T07:26:47;8.93;;;5.30;;
23888;SDS011;12125;40.102;18.326;2022-12-07T07:29:15;14.00;;;5.35;;
23888;SDS011;12125;40.102;18.326;2022-12-07T07:31:41;6.68;;;4.55;;
23888;SDS011;12125;40.102;18.326;2022-12-07T07:34:09;12.02;;;5.03;;
23888;SDS011;12125;40.102;18.326;2022-12-07T07:36:37;14.38;;;4.80;;
23888;SDS011;12125;40.102;18.326;2022-12-07T07:39:04;9.35;;;4.35;;
23888;SDS011;12125;40.102;18.326;2022-12-07T07:41:33;10.98;;;5.10;;
23888;SDS011;12125;40.102;18.326;2022-12-07T07:44:01;9.70;;;4.07;;
23888;SDS011;12125;40.102;18.326;2022-12-07T07:46:28;10.15;;;4.18;;
23888;SDS011;12125;40.102;18.326;2022-12-07T07:48:58;9.95;;;3.95;;
23888;SDS011;12125;40.102;18.326;2022-12-07T07:51:25;13.43;;;3.92;;
23888;SDS011;12125;40.102;18.326;2022-12-07T07:53:51;10.85;;;3.90;;
23888;SDS011;12125;40.102;18.326;2022-12-07T07:56:18;10.45;;;3.65;;
23888;SDS011;12125;40.102;18.326;2022-12-07T07:58:45;14.00;;;4.13;;
23888;SDS011;12125;40.102;18.326;2022-12-07T08:01:11;12.20;;;3.90;;
23888;SDS011;12125;40.102;18.326;2022-12-07T08:03:39;12.32;;;3.40;;
23888;SDS011;12125;40.102;18.326;2022-12-07T08:06:06;12.52;;;3.42;;
23888;SDS011;12125;40.102;18.326;2022-12-07T08:08:32;8.27;;;3.15;;
23888;SDS011;12125;40.102;18.326;2022-12-07T08:11:04;10.90;;;2.88;;
23888;SDS011;12125;40.102;18.326;2022-12-07T08:13:31;12.63;;;3.35;;
23888;SDS011;12125;40.102;18.326;2022-12-07T08:15:58;7.80;;;3.15;;
23888;SDS011;12125;40.102;18.326;2022-12-07T08:20:59;14.43;;;3.25;;
23888;SDS011;12125;40.102;18.326;2022-12-07T08:23:27;12.70;;;3.35;;
23888;SDS011;12125;40.102;18.326;2022-12-07T08:25:53;11.77;;;3.70;;
23888;SDS011;12125;40.102;18.326;2022-12-07T08:28:21;12.85;;;3.53;;
23888;SDS011;12125;40.102;18.326;2022-12-07T08:30:48;14.27;;;3.40;;
23888;SDS011;12125;40.102;18.326;2022-12-07T08:33:14;12.70;;;3.67;;
23888;SDS011;12125;40.102;18.326;2022-12-07T08:35:41;14.82;;;4.28;;
23888;SDS011;12125;40.102;18.326;2022-12-07T08:41:01;12.60;;;3.80;;
23888;SDS011;12125;40.102;18.326;2022-12-07T08:43:29;12.45;;;4.00;;
23888;SDS011;12125;40.102;18.326;2022-12-07T08:46:03;11.88;;;3.10;;
23888;SDS011;12125;40.102;18.326;2022-12-07T08:48:31;17.83;;;3.97;;
23888;SDS011;12125;40.102;18.326;2022-12-07T08:50:58;13.77;;;3.35;;
23888;SDS011;12125;40.102;18.326;2022-12-07T08:53:25;20.15;;;4.40;;
23888;SDS011;12125;40.102;18.326;2022-12-07T08:55:52;15.75;;;3.92;;
23888;SDS011;12125;40.102;18.326;2022-12-07T09:01:47;14.00;;;3.47;;
23888;SDS011;12125;40.102;18.326;2022-12-07T09:04:14;12.80;;;4.40;;
23888;SDS011;12125;40.102;18.326;2022-12-07T09:06:41;13.25;;;3.78;;
23888;SDS011;12125;40.102;18.326;2022-12-07T09:09:09;7.97;;;2.80;;
23888;SDS011;12125;40.102;18.326;2022-12-07T09:11:36;13.27;;;4.43;;
23888;SDS011;12125;40.102;18.326;2022-12-07T09:14:04;10.75;;;3.60;;
23888;SDS011;12125;40.102;18.326;2022-12-07T09:16:32;12.20;;;3.55;;
23888;SDS011;12125;40.102;18.326;2022-12-07T09:18:58;15.23;;;3.65;;
23888;SDS011;12125;40.102;18.326;2022-12-07T09:21:25;13.98;;;3.97;;
23888;SDS011;12125;40.102;18.326;2022-12-07T09:23:53;14.52;;;3.47;;
23888;SDS011;12125;40.102;18.326;2022-12-07T09:26:20;12.60;;;3.08;;
23888;SDS011;12125;40.102;18.326;2022-12-07T09:28:47;18.13;;;3.85;;
23888;SDS011;12125;40.102;18.326;2022-12-07T09:31:14;17.58;;;3.88;;
23888;SDS011;12125;40.102;18.326;2022-12-07T09:33:41;10.45;;;3.47;;
23888;SDS011;12125;40.102;18.326;2022-12-07T09:39:40;9.68;;;3.20;;
23888;SDS011;12125;40.102;18.326;2022-12-07T09:42:07;18.70;;;3.47;;
23888;SDS011;12125;40.102;18.326;2022-12-07T09:44:36;11.65;;;3.58;;
23888;SDS011;12125;40.102;18.326;2022-12-07T09:47:03;16.13;;;3.60;;
23888;SDS011;12125;40.102;18.326;2022-12-07T09:49:30;17.80;;;4.43;;
23888;SDS011;12125;40.102;18.326;2022-12-07T09:52:02;11.38;;;3.95;;
23888;SDS011;12125;40.102;18.326;2022-12-07T09:54:30;8.80;;;3.63;;
23888;SDS011;12125;40.102;18.326;2022-12-07T09:56:57;13.55;;;3.90;;
23888;SDS011;12125;40.102;18.326;2022-12-07T09:59:25;8.15;;;2.88;;
23888;SDS011;12125;40.102;18.326;2022-12-07T10:01:52;12.43;;;3.42;;
23888;SDS011;12125;40.102;18.326;2022-12-07T10:04:22;18.65;;;4.25;;
23888;SDS011;12125;40.102;18.326;2022-12-07T10:06:50;8.23;;;4.23;;
23888;SDS011;12125;40.102;18.326;2022-12-07T10:09:18;11.38;;;3.78;;
23888;SDS011;12125;40.102;18.326;2022-12-07T10:12:02;14.73;;;4.57;;
23888;SDS011;12125;40.102;18.326;2022-12-07T10:14:52;12.52;;;4.50;;
23888;SDS011;12125;40.102;18.326;2022-12-07T10:17:36;15.65;;;4.07;;
23888;SDS011;12125;40.102;18.326;2022-12-07T10:20:16;10.50;;;3.90;;
23888;SDS011;12125;40.102;18.326;2022-12-07T10:23:03;12.77;;;5.32;;
23888;SDS011;12125;40.102;18.326;2022-12-07T10:25:31;14.38;;;4.60;;
23888;SDS011;12125;40.102;18.326;2022-12-07T10:27:59;15.88;;;5.13;;
23888;SDS011;12125;40.102;18.326;2022-12-07T10:36:15;11.43;;;3.42;;
23888;SDS011;12125;40.102;18.326;2022-12-07T10:41:10;6.68;;;3.00;;
23888;SDS011;12125;40.102;18.326;2022-12-07T10:43:37;8.35;;;2.90;;
23888;SDS011;12125;40.102;18.326;2022-12-07T10:54:12;10.48;;;3.38;;
23888;SDS011;12125;40.102;18.326;2022-12-07T11:02:21;11.02;;;3.70;;
23888;SDS011;12125;40.102;18.326;2022-12-07T11:04:54;11.00;;;3.85;;
23888;SDS011;12125;40.102;18.326;2022-12-07T11:07:41;11.50;;;3.53;;
23888;SDS011;12125;40.102;18.326;2022-12-07T11:10:13;10.75;;;4.47;;
23888;SDS011;12125;40.102;18.326;2022-12-07T11:12:50;13.52;;;3.33;;
23888;SDS011;12125;40.102;18.326;2022-12-07T11:20:37;11.88;;;3.90;;
23888;SDS011;12125;40.102;18.326;2022-12-07T11:26:00;13.40;;;3.83;;
23888;SDS011;12125;40.102;18.326;2022-12-07T11:28:33;18.05;;;3.67;;
23888;SDS011;12125;40.102;18.326;2022-12-07T11:36:08;11.63;;;3.88;;
23888;SDS011;12125;40.102;18.326;2022-12-07T11:38:41;15.45;;;3.80;;
23888;SDS011;12125;40.102;18.326;2022-12-07T11:41:09;15.90;;;3.30;;
23888;SDS011;12125;40.102;18.326;2022-12-07T11:43:56;12.73;;;3.75;;
23888;SDS011;12125;40.102;18.326;2022-12-07T11:46:42;14.82;;;3.70;;
23888;SDS011;12125;40.102;18.326;2022-12-07T11:49:58;15.07;;;4.18;;
23888;SDS011;12125;40.102;18.326;2022-12-07T11:51:58;18.58;;;4.25;;
23888;SDS011;12125;40.102;18.326;2022-12-07T11:54:32;17.00;;;4.35;;
23888;SDS011;12125;40.102;18.326;2022-12-07T11:57:03;19.65;;;3.78;;
23888;SDS011;12125;40.102;18.326;2022-12-07T11:59:40;17.83;;;4.13;;
23888;SDS011;12125;40.102;18.326;2022-12-07T12:02:24;17.88;;;4.25;;
23888;SDS011;12125;40.102;18.326;2022-12-07T12:07:21;12.90;;;4.00;;
23888;SDS011;12125;40.102;18.326;2022-12-07T12:20:35;21.73;;;4.28;;
23888;SDS011;12125;40.102;18.326;2022-12-07T12:25:38;16.17;;;4.10;;
23888;SDS011;12125;40.102;18.326;2022-12-07T12:33:35;10.40;;;4.15;;
23888;SDS011;12125;40.102;18.326;2022-12-07T12:36:45;17.67;;;4.70;;
23888;SDS011;12125;40.102;18.326;2022-12-07T12:51:49;13.23;;;4.03;;
23888;SDS011;12125;40.102;18.326;2022-12-07T12:54:20;9.73;;;3.53;;
23888;SDS011;12125;40.102;18.326;2022-12-07T12:56:59;12.50;;;3.85;;
23888;SDS011;12125;40.102;18.326;2022-12-07T12:59:38;16.55;;;4.38;;
23888;SDS011;12125;40.102;18.326;2022-12-07T13:04:58;11.23;;;4.18;;
23888;SDS011;12125;40.102;18.326;2022-12-07T13:15:49;13.70;;;3.63;;
23888;SDS011;12125;40.102;18.326;2022-12-07T13:20:50;19.73;;;5.20;;
23888;SDS011;12125;40.102;18.326;2022-12-07T13:23:52;14.48;;;4.53;;
23888;SDS011;12125;40.102;18.326;2022-12-07T13:29:11;14.15;;;4.38;;
23888;SDS011;12125;40.102;18.326;2022-12-07T13:31:39;18.05;;;4.50;;
23888;SDS011;12125;40.102;18.326;2022-12-07T13:36:52;13.77;;;4.22;;
23888;SDS011;12125;40.102;18.326;2022-12-07T13:39:20;14.18;;;4.57;;
23888;SDS011;12125;40.102;18.326;2022-12-07T13:41:49;16.17;;;4.13;;
23888;SDS011;12125;40.102;18.326;2022-12-07T13:44:17;16.05;;;4.18;;
23888;SDS011;12125;40.102;18.326;2022-12-07T13:51:47;11.52;;;3.45;;
23888;SDS011;12125;40.102;18.326;2022-12-07T13:54:14;15.50;;;3.90;;
23888;SDS011;12125;40.102;18.326;2022-12-07T13:56:41;14.15;;;3.75;;
23888;SDS011;12125;40.102;18.326;2022-12-07T13:59:21;12.85;;;3.88;;
23888;SDS011;12125;40.102;18.326;2022-12-07T14:01:49;11.98;;;4.07;;
23888;SDS011;12125;40.102;18.326;2022-12-07T14:04:35;22.08;;;4.50;;
23888;SDS011;12125;40.102;18.326;2022-12-07T14:07:23;16.00;;;4.32;;
23888;SDS011;12125;40.102;18.326;2022-12-07T14:09:55;11.57;;;4.00;;
23888;SDS011;12125;40.102;18.326;2022-12-07T14:12:23;14.57;;;3.90;;
23888;SDS011;12125;40.102;18.326;2022-12-07T14:14:51;12.02;;;3.63;;
23888;SDS011;12125;40.102;18.326;2022-12-07T14:17:19;9.27;;;3.45;;
23888;SDS011;12125;40.102;18.326;2022-12-07T14:19:49;9.95;;;3.53;;
23888;SDS011;12125;40.102;18.326;2022-12-07T14:22:28;14.82;;;3.50;;
23888;SDS011;12125;40.102;18.326;2022-12-07T14:24:59;13.65;;;4.13;;
23888;SDS011;12125;40.102;18.326;2022-12-07T14:27:30;9.57;;;3.30;;
23888;SDS011;12125;40.102;18.326;2022-12-07T14:30:00;11.75;;;3.70;;
23888;SDS011;12125;40.102;18.326;2022-12-07T14:32:27;15.32;;;3.70;;
23888;SDS011;12125;40.102;18.326;2022-12-07T14:37:25;9.60;;;4.00;;
23888;SDS011;12125;40.102;18.326;2022-12-07T14:39:53;13.52;;;4.57;;
23888;SDS011;12125;40.102;18.326;2022-12-07T14:42:21;16.50;;;4.28;;
23888;SDS011;12125;40.102;18.326;2022-12-07T14:44:51;14.30;;;4.43;;
23888;SDS011;12125;40.102;18.326;2022-12-07T14:47:18;16.10;;;4.57;;
23888;SDS011;12125;40.102;18.326;2022-12-07T14:49:45;15.07;;;4.95;;
23888;SDS011;12125;40.102;18.326;2022-12-07T14:52:13;13.80;;;5.60;;
23888;SDS011;12125;40.102;18.326;2022-12-07T14:54:41;11.88;;;5.05;;
23888;SDS011;12125;40.102;18.326;2022-12-07T14:57:09;11.75;;;4.40;;
23888;SDS011;12125;40.102;18.326;2022-12-07T14:59:36;11.52;;;4.75;;
23888;SDS011;12125;40.102;18.326;2022-12-07T15:02:03;18.98;;;5.10;;
23888;SDS011;12125;40.102;18.326;2022-12-07T15:04:30;18.77;;;5.22;;
23888;SDS011;12125;40.102;18.326;2022-12-07T15:06:57;15.32;;;5.00;;
23888;SDS011;12125;40.102;18.326;2022-12-07T15:09:25;13.32;;;4.25;;
23888;SDS011;12125;40.102;18.326;2022-12-07T15:11:52;10.82;;;4.50;;
23888;SDS011;12125;40.102;18.326;2022-12-07T15:14:18;15.38;;;5.32;;
23888;SDS011;12125;40.102;18.326;2022-12-07T15:16:45;14.27;;;4.13;;
23888;SDS011;12125;40.102;18.326;2022-12-07T15:19:13;18.08;;;5.55;;
23888;SDS011;12125;40.102;18.326;2022-12-07T15:21:41;23.13;;;6.13;;
23888;SDS011;12125;40.102;18.326;2022-12-07T15:24:11;14.65;;;5.10;;
23888;SDS011;12125;40.102;18.326;2022-12-07T15:26:38;16.20;;;4.82;;
23888;SDS011;12125;40.102;18.326;2022-12-07T15:29:05;16.10;;;5.75;;
23888;SDS011;12125;40.102;18.326;2022-12-07T15:31:33;17.15;;;5.63;;
23888;SDS011;12125;40.102;18.326;2022-12-07T15:33:59;19.70;;;6.20;;
23888;SDS011;12125;40.102;18.326;2022-12-07T15:36:27;12.55;;;5.45;;
23888;SDS011;12125;40.102;18.326;2022-12-07T15:38:55;9.50;;;5.07;;
23888;SDS011;12125;40.102;18.326;2022-12-07T15:41:22;9.50;;;5.00;;
23888;SDS011;12125;40.102;18.326;2022-12-07T15:43:50;15.93;;;5.68;;
23888;SDS011;12125;40.102;18.326;2022-12-07T15:46:36;12.88;;;5.63;;
23888;SDS011;12125;40.102;18.326;2022-12-07T15:49:04;11.57;;;5.55;;
23888;SDS011;12125;40.102;18.326;2022-12-07T15:51:31;11.13;;;5.47;;
23888;SDS011;12125;40.102;18.326;2022-12-07T15:53:57;14.45;;;5.72;;
23888;SDS011;12125;40.102;18.326;2022-12-07T15:56:24;21.40;;;6.30;;
23888;SDS011;12125;40.102;18.326;2022-12-07T15:58:51;24.40;;;6.22;;
23888;SDS011;12125;40.102;18.326;2022-12-07T16:01:19;13.98;;;6.70;;
23888;SDS011;12125;40.102;18.326;2022-12-07T16:03:46;23.85;;;5.72;;
23888;SDS011;12125;40.102;18.326;2022-12-07T16:06:15;8.63;;;5.55;;
23888;SDS011;12125;40.102;18.326;2022-12-07T16:08:42;11.10;;;4.78;;
23888;SDS011;12125;40.102;18.326;2022-12-07T16:11:09;12.23;;;6.03;;
23888;SDS011;12125;40.102;18.326;2022-12-07T16:13:37;12.05;;;4.97;;
23888;SDS011;12125;40.102;18.326;2022-12-07T16:16:06;13.30;;;5.30;;
23888;SDS011;12125;40.102;18.326;2022-12-07T16:18:34;12.68;;;5.50;;
23888;SDS011;12125;40.102;18.326;2022-12-07T16:21:12;7.63;;;4.50;;
23888;SDS011;12125;40.102;18.326;2022-12-07T16:23:50;7.90;;;5.93;;
23888;SDS011;12125;40.102;18.326;2022-12-07T16:26:17;17.77;;;7.15;;
23888;SDS011;12125;40.102;18.326;2022-12-07T16:28:45;13.48;;;6.63;;
23888;SDS011;12125;40.102;18.326;2022-12-07T16:31:14;10.65;;;5.88;;
23888;SDS011;12125;40.102;18.326;2022-12-07T16:33:41;12.55;;;7.13;;
23888;SDS011;12125;40.102;18.326;2022-12-07T16:36:09;15.77;;;6.50;;
23888;SDS011;12125;40.102;18.326;2022-12-07T16:38:36;19.65;;;7.80;;
23888;SDS011;12125;40.102;18.326;2022-12-07T16:41:07;14.98;;;6.25;;
23888;SDS011;12125;40.102;18.326;2022-12-07T16:43:34;12.50;;;6.30;;
23888;SDS011;12125;40.102;18.326;2022-12-07T16:46:02;17.60;;;7.20;;
23888;SDS011;12125;40.102;18.326;2022-12-07T16:48:29;14.07;;;6.80;;
23888;SDS011;12125;40.102;18.326;2022-12-07T16:50:58;11.18;;;5.63;;
23888;SDS011;12125;40.102;18.326;2022-12-07T16:53:35;14.32;;;5.60;;
23888;SDS011;12125;40.102;18.326;2022-12-07T16:56:18;9.68;;;6.75;;
23888;SDS011;12125;40.102;18.326;2022-12-07T16:58:58;12.95;;;5.40;;